sensor_id;sensor_type;location;lat;lon;timestamp;P1;durP1;ratioP1;P2;durP2;ratioP2
68886;SDS011;55925;51.764;6.402;2023-07-29T20:29:31;7.60;;;3.30;;
68886;SDS011;55925;51.764;6.402;2023-07-29T20:31:57;7.38;;;3.67;;
68886;SDS011;55925;51.764;6.402;2023-07-29T20:34:23;6.53;;;3.05;;
68886;SDS011;55925;51.764;6.402;2023-07-29T20:36:49;7.93;;;3.45;;
68886;SDS011;55925;51.764;6.402;2023-07-29T20:39:15;7.53;;;3.35;;
68886;SDS011;55925;51.764;6.402;2023-07-29T20:41:41;7.68;;;3.40;;
68886;SDS011;55925;51.764;6.402;2023-07-29T20:44:07;7.05;;;3.55;;
68886;SDS011;55925;51.764;6.402;2023-07-29T20:46:35;6.78;;;3.38;;
68886;SDS011;55925;51.764;6.402;2023-07-29T20:49:01;7.70;;;3.35;;
68886;SDS011;55925;51.764;6.402;2023-07-29T20:51:28;9.52;;;4.07;;
68886;SDS011;55925;51.764;6.402;2023-07-29T20:53:54;7.95;;;3.50;;
68886;SDS011;55925;51.764;6.402;2023-07-29T20:56:20;7.80;;;3.92;;
68886;SDS011;55925;51.764;6.402;2023-07-29T20:58:46;8.00;;;3.65;;
68886;SDS011;55925;51.764;6.402;2023-07-29T21:01:12;9.18;;;3.97;;
68886;SDS011;55925;51.764;6.402;2023-07-29T21:03:38;8.10;;;3.45;;
68886;SDS011;55925;51.764;6.402;2023-07-29T21:06:04;7.80;;;3.33;;
68886;SDS011;55925;51.764;6.402;2023-07-29T21:08:30;8.30;;;3.67;;
68886;SDS011;55925;51.764;6.402;2023-07-29T21:10:56;7.72;;;2.95;;
68886;SDS011;55925;51.764;6.402;2023-07-29T21:13:22;6.13;;;2.75;;
68886;SDS011;55925;51.764;6.402;2023-07-29T21:15:49;6.63;;;2.83;;
68886;SDS011;55925;51.764;6.402;2023-07-29T21:18:15;7.22;;;2.25;;
68886;SDS011;55925;51.764;6.402;2023-07-29T21:20:41;7.47;;;2.40;;
68886;SDS011;55925;51.764;6.402;2023-07-29T21:23:07;7.35;;;3.03;;
68886;SDS011;55925;51.764;6.402;2023-07-29T21:25:33;8.73;;;2.65;;
68886;SDS011;55925;51.764;6.402;2023-07-29T21:27:59;7.47;;;2.53;;
68886;SDS011;55925;51.764;6.402;2023-07-29T21:30:25;9.68;;;2.47;;
68886;SDS011;55925;51.764;6.402;2023-07-29T21:32:52;6.85;;;3.20;;
68886;SDS011;55925;51.764;6.402;2023-07-29T21:35:18;7.22;;;2.50;;
68886;SDS011;55925;51.764;6.402;2023-07-29T21:37:44;8.25;;;2.50;;
68886;SDS011;55925;51.764;6.402;2023-07-29T21:40:10;8.38;;;3.20;;
68886;SDS011;55925;51.764;6.402;2023-07-29T21:42:36;6.32;;;2.63;;
68886;SDS011;55925;51.764;6.402;2023-07-29T21:45:03;10.10;;;3.22;;
68886;SDS011;55925;51.764;6.402;2023-07-29T21:47:29;7.35;;;2.70;;
68886;SDS011;55925;51.764;6.402;2023-07-29T21:49:55;9.25;;;3.25;;
68886;SDS011;55925;51.764;6.402;2023-07-29T21:52:22;9.15;;;2.95;;
68886;SDS011;55925;51.764;6.402;2023-07-29T21:54:48;7.38;;;3.22;;
68886;SDS011;55925;51.764;6.402;2023-07-29T21:57:14;7.07;;;3.35;;
68886;SDS011;55925;51.764;6.402;2023-07-29T21:59:40;8.52;;;3.28;;
68886;SDS011;55925;51.764;6.402;2023-07-29T22:02:06;7.22;;;2.63;;
68886;SDS011;55925;51.764;6.402;2023-07-29T22:04:32;8.90;;;2.75;;
68886;SDS011;55925;51.764;6.402;2023-07-29T22:06:58;8.52;;;3.72;;
68886;SDS011;55925;51.764;6.402;2023-07-29T22:09:24;6.78;;;2.90;;
68886;SDS011;55925;51.764;6.402;2023-07-29T22:11:50;11.13;;;4.00;;
68886;SDS011;55925;51.764;6.402;2023-07-29T22:14:16;8.60;;;3.13;;
68886;SDS011;55925;51.764;6.402;2023-07-29T22:16:44;6.28;;;2.72;;
68886;SDS011;55925;51.764;6.402;2023-07-29T22:19:10;10.95;;;3.85;;
68886;SDS011;55925;51.764;6.402;2023-07-29T22:21:36;8.65;;;3.75;;
68886;SDS011;55925;51.764;6.402;2023-07-29T22:24:03;7.43;;;3.28;;
68886;SDS011;55925;51.764;6.402;2023-07-29T22:26:29;8.23;;;4.03;;
68886;SDS011;55925;51.764;6.402;2023-07-29T22:28:58;8.77;;;3.80;;
68886;SDS011;55925;51.764;6.402;2023-07-29T22:31:26;10.43;;;3.78;;
68886;SDS011;55925;51.764;6.402;2023-07-29T22:33:52;12.65;;;4.53;;
68886;SDS011;55925;51.764;6.402;2023-07-29T22:36:18;9.93;;;4.05;;
68886;SDS011;55925;51.764;6.402;2023-07-29T22:38:44;8.80;;;4.28;;
68886;SDS011;55925;51.764;6.402;2023-07-29T22:41:10;8.98;;;4.00;;
68886;SDS011;55925;51.764;6.402;2023-07-29T22:43:36;12.43;;;4.35;;
68886;SDS011;55925;51.764;6.402;2023-07-29T22:46:02;9.20;;;4.55;;
68886;SDS011;55925;51.764;6.402;2023-07-29T22:48:28;9.48;;;4.32;;
68886;SDS011;55925;51.764;6.402;2023-07-29T22:50:55;11.80;;;4.35;;
68886;SDS011;55925;51.764;6.402;2023-07-29T22:53:21;10.77;;;4.45;;
68886;SDS011;55925;51.764;6.402;2023-07-29T22:55:47;9.20;;;4.05;;
68886;SDS011;55925;51.764;6.402;2023-07-29T22:58:14;11.02;;;4.20;;
68886;SDS011;55925;51.764;6.402;2023-07-29T23:00:41;11.88;;;4.35;;
68886;SDS011;55925;51.764;6.402;2023-07-29T23:03:08;7.45;;;3.60;;
68886;SDS011;55925;51.764;6.402;2023-07-29T23:05:37;8.93;;;3.05;;
68886;SDS011;55925;51.764;6.402;2023-07-29T23:08:03;6.70;;;3.33;;
68886;SDS011;55925;51.764;6.402;2023-07-29T23:10:30;9.48;;;3.55;;
68886;SDS011;55925;51.764;6.402;2023-07-29T23:12:57;7.60;;;3.17;;
68886;SDS011;55925;51.764;6.402;2023-07-29T23:15:24;7.72;;;3.13;;
68886;SDS011;55925;51.764;6.402;2023-07-29T23:17:50;7.03;;;2.95;;
68886;SDS011;55925;51.764;6.402;2023-07-29T23:20:16;10.43;;;3.35;;
68886;SDS011;55925;51.764;6.402;2023-07-29T23:22:42;7.50;;;2.40;;
68886;SDS011;55925;51.764;6.402;2023-07-29T23:25:08;7.78;;;2.80;;
68886;SDS011;55925;51.764;6.402;2023-07-29T23:27:34;8.25;;;3.50;;
68886;SDS011;55925;51.764;6.402;2023-07-29T23:30:00;7.63;;;3.72;;
68886;SDS011;55925;51.764;6.402;2023-07-29T23:32:27;8.48;;;3.13;;
68886;SDS011;55925;51.764;6.402;2023-07-29T23:34:53;9.88;;;2.72;;
68886;SDS011;55925;51.764;6.402;2023-07-29T23:37:19;8.60;;;2.75;;
68886;SDS011;55925;51.764;6.402;2023-07-29T23:39:45;9.05;;;3.05;;
68886;SDS011;55925;51.764;6.402;2023-07-29T23:42:13;10.25;;;2.90;;
68886;SDS011;55925;51.764;6.402;2023-07-29T23:44:39;8.35;;;2.88;;
68886;SDS011;55925;51.764;6.402;2023-07-29T23:47:05;5.82;;;2.63;;
68886;SDS011;55925;51.764;6.402;2023-07-29T23:49:31;7.68;;;3.05;;
68886;SDS011;55925;51.764;6.402;2023-07-29T23:51:57;10.07;;;3.05;;
68886;SDS011;55925;51.764;6.402;2023-07-29T23:54:23;7.63;;;3.15;;
68886;SDS011;55925;51.764;6.402;2023-07-29T23:56:49;8.23;;;2.80;;
68886;SDS011;55925;51.764;6.402;2023-07-29T23:59:15;11.60;;;2.75;;
